createdAt,value
2019-02-23T00:02:07.439Z,36.00
2019-02-23T00:04:37.040Z,36.00
2019-02-23T00:07:06.577Z,34.18
2019-02-23T00:09:36.078Z,34.70
2019-02-23T00:12:05.585Z,32.88
2019-02-23T00:14:35.092Z,34.10
2019-02-23T00:17:04.645Z,31.12
2019-02-23T00:19:34.221Z,32.17
2019-02-23T00:22:03.753Z,34.13
2019-02-23T00:24:33.257Z,32.50
2019-02-23T00:27:02.951Z,30.57
2019-02-23T00:29:32.459Z,30.62
2019-02-23T00:32:02.045Z,29.98
2019-02-23T00:34:31.583Z,32.28
2019-02-23T00:37:01.149Z,31.62
2019-02-23T00:39:30.706Z,30.45
2019-02-23T00:42:18.114Z,29.87
2019-02-23T00:44:47.603Z,30.52
2019-02-23T00:47:16.896Z,29.70
2019-02-23T00:49:46.512Z,30.23
2019-02-23T00:52:16.016Z,31.30
2019-02-23T00:54:45.517Z,31.42
2019-02-23T00:57:15.255Z,32.65
2019-02-23T00:59:44.793Z,32.35
2019-02-23T01:02:14.295Z,32.65
2019-02-23T01:04:43.958Z,33.08
2019-02-23T01:07:13.461Z,34.55
2019-02-23T01:09:42.978Z,34.00
2019-02-23T01:12:12.545Z,37.15
2019-02-23T01:14:42.061Z,37.50
2019-02-23T01:17:11.773Z,35.28
2019-02-23T01:19:47.691Z,30.65
2019-02-23T01:22:12.493Z,31.90
2019-02-23T01:24:42.059Z,33.65
2019-02-23T01:27:11.706Z,36.20
2019-02-23T01:29:41.246Z,33.33
2019-02-23T01:32:10.834Z,35.43
2019-02-23T01:34:40.400Z,35.13
2019-02-23T01:37:10.043Z,33.28
2019-02-23T01:39:39.611Z,36.15
2019-02-23T01:42:09.296Z,34.13
2019-02-23T01:45:14.670Z,35.50
2019-02-23T01:47:44.218Z,34.67
2019-02-23T01:50:13.802Z,35.38
2019-02-23T01:52:43.326Z,34.43
2019-02-23T01:55:13.301Z,34.48
2019-02-23T01:57:42.784Z,34.30
2019-02-23T02:00:14.263Z,35.10
2019-02-23T02:02:44.867Z,32.30
2019-02-23T02:05:14.645Z,32.35
2019-02-23T02:07:44.114Z,35.38
2019-02-23T02:10:13.652Z,33.20
2019-02-23T02:12:43.297Z,32.60
2019-02-23T02:15:14.106Z,32.50
2019-02-23T02:17:43.875Z,30.62
2019-02-23T02:20:13.346Z,31.60
2019-02-23T02:22:42.879Z,29.60
2019-02-23T02:25:12.458Z,30.57
2019-02-23T02:27:41.974Z,29.12
2019-02-23T02:30:12.107Z,30.80
2019-02-23T02:32:41.576Z,32.48
2019-02-23T02:35:11.550Z,31.12
2019-02-23T02:37:41.097Z,30.52
2019-02-23T02:40:11.864Z,31.05
2019-02-23T02:42:41.388Z,33.20
2019-02-23T02:45:11.446Z,32.85
2019-02-23T02:47:41.042Z,31.00
2019-02-23T02:50:23.361Z,33.08
2019-02-23T02:52:42.190Z,33.65
2019-02-23T02:55:11.836Z,37.23
2019-02-23T02:57:41.321Z,34.00
2019-02-23T03:00:13.082Z,36.17
2019-02-23T03:02:42.655Z,36.48
2019-02-23T03:05:12.221Z,35.73
2019-02-23T03:07:41.854Z,36.08
2019-02-23T03:10:11.420Z,36.63
2019-02-23T03:12:40.918Z,37.73
2019-02-23T03:15:10.437Z,37.70
2019-02-23T03:17:39.909Z,36.95
2019-02-23T03:20:09.965Z,36.13
2019-02-23T03:22:39.442Z,37.33
2019-02-23T03:25:09.049Z,35.30
2019-02-23T03:27:38.697Z,32.98
2019-02-23T03:30:09.934Z,32.38
2019-02-23T03:32:39.431Z,34.50
2019-02-23T03:35:09.349Z,33.75
2019-02-23T03:37:38.890Z,32.98
2019-02-23T03:40:09.762Z,31.05
2019-02-23T03:42:39.207Z,32.30
2019-02-23T03:45:08.940Z,33.78
2019-02-23T03:47:38.448Z,32.67
2019-02-23T03:50:08.214Z,32.30
2019-02-23T03:52:37.832Z,36.17
2019-02-23T03:55:07.402Z,34.90
2019-02-23T03:57:37.296Z,33.48
2019-02-23T04:00:08.507Z,34.75
2019-02-23T04:02:38.000Z,33.88
2019-02-23T04:05:08.651Z,33.85
2019-02-23T04:07:38.202Z,36.58
2019-02-23T04:10:08.142Z,40.00
2019-02-23T04:12:37.823Z,38.95
2019-02-23T04:15:07.785Z,37.42
2019-02-23T04:17:37.516Z,37.10
2019-02-23T04:20:07.169Z,34.58
2019-02-23T04:22:36.688Z,35.58
2019-02-23T04:25:06.364Z,36.15
2019-02-23T04:27:35.870Z,36.25
2019-02-23T04:30:05.483Z,36.10
2019-02-23T04:32:35.035Z,36.80
2019-02-23T04:35:04.542Z,35.17
2019-02-23T04:37:34.042Z,34.13
2019-02-23T04:40:03.649Z,36.55
2019-02-23T04:42:33.199Z,34.23
2019-02-23T04:45:03.156Z,35.48
2019-02-23T04:47:32.693Z,32.50
2019-02-23T04:50:02.652Z,30.43
2019-02-23T04:52:32.178Z,33.00
2019-02-23T04:55:01.751Z,32.60
2019-02-23T04:57:31.274Z,32.80
2019-02-23T05:00:01.706Z,31.10
2019-02-23T05:02:31.254Z,33.73
2019-02-23T05:05:00.827Z,32.40
2019-02-23T05:07:30.394Z,32.35
2019-02-23T05:10:00.444Z,30.62
2019-02-23T05:12:29.981Z,31.07
2019-02-23T05:14:59.469Z,30.97
2019-02-23T05:17:28.989Z,30.95
2019-02-23T05:19:58.496Z,31.20
2019-02-23T05:22:28.326Z,31.45
2019-02-23T05:24:57.845Z,29.87
2019-02-23T05:27:27.498Z,30.30
2019-02-23T05:29:57.045Z,30.15
2019-02-23T05:32:26.567Z,29.80
2019-02-23T05:34:56.170Z,29.27
2019-02-23T05:37:25.644Z,27.15
2019-02-23T05:39:55.202Z,27.93
2019-02-23T05:42:24.932Z,26.33
2019-02-23T05:44:54.485Z,28.17
2019-02-23T05:47:23.991Z,28.15
2019-02-23T05:49:53.619Z,27.05
2019-02-23T05:52:23.094Z,28.75
2019-02-23T05:54:52.611Z,28.40
2019-02-23T05:57:22.164Z,27.73
2019-02-23T05:59:52.277Z,28.23
2019-02-23T06:06:17.663Z,28.30
2019-02-23T06:08:47.303Z,27.60
2019-02-23T06:11:16.956Z,29.87
2019-02-23T06:13:46.686Z,27.60
2019-02-23T06:16:16.687Z,27.58
2019-02-23T06:18:49.357Z,29.65
2019-02-23T06:21:18.873Z,28.85
2019-02-23T06:23:48.347Z,31.60
2019-02-23T06:26:18.050Z,30.77
2019-02-23T06:28:47.566Z,29.75
2019-02-23T06:31:17.110Z,29.55
2019-02-23T06:33:47.120Z,30.05
2019-02-23T06:36:16.614Z,31.97
2019-02-23T06:38:46.279Z,30.77
2019-02-23T06:41:15.784Z,30.92
2019-02-23T06:43:45.258Z,32.65
2019-02-23T06:46:14.849Z,34.03
2019-02-23T06:49:06.571Z,30.55
2019-02-23T06:51:36.205Z,29.90
2019-02-23T06:54:05.758Z,31.27
2019-02-23T06:56:35.378Z,30.65
2019-02-23T06:59:04.863Z,31.35
2019-02-23T07:01:34.464Z,32.45
2019-02-23T07:04:03.958Z,31.05
2019-02-23T07:06:33.815Z,31.48
2019-02-23T07:09:03.470Z,30.08
2019-02-23T07:11:33.180Z,29.55
2019-02-23T07:14:02.685Z,31.20
2019-02-23T07:16:32.220Z,31.60
2019-02-23T07:19:01.848Z,29.90
2019-02-23T07:21:31.351Z,27.98
2019-02-23T07:24:00.922Z,28.98
2019-02-23T07:26:30.801Z,28.25
2019-02-23T07:29:00.322Z,27.93
2019-02-23T07:31:29.839Z,28.12
2019-02-23T07:33:59.497Z,28.38
2019-02-23T07:36:28.960Z,27.35
2019-02-23T07:38:58.582Z,26.55
2019-02-23T07:41:28.160Z,26.95
2019-02-23T07:43:57.640Z,25.90
2019-02-23T07:46:27.181Z,28.15
2019-02-23T07:48:56.690Z,26.85
2019-02-23T07:51:26.328Z,26.42
2019-02-23T07:53:56.272Z,24.75
2019-02-23T07:56:25.789Z,24.32
2019-02-23T07:58:55.419Z,23.67
2019-02-23T08:01:24.956Z,24.10
2019-02-23T08:03:54.560Z,22.48
2019-02-23T08:06:24.116Z,21.02
2019-02-23T08:08:53.709Z,22.48
2019-02-23T08:11:23.567Z,22.62
2019-02-23T08:13:53.113Z,21.65
2019-02-23T08:16:22.802Z,21.00
2019-02-23T08:18:52.329Z,20.90
2019-02-23T08:21:21.862Z,21.23
2019-02-23T08:23:51.442Z,19.30
2019-02-23T08:26:21.012Z,20.00
2019-02-23T08:28:50.780Z,20.17
2019-02-23T08:31:20.306Z,19.30
2019-02-23T08:33:49.868Z,18.17
2019-02-23T08:36:19.899Z,17.48
2019-02-23T08:38:49.432Z,17.70
2019-02-23T08:41:19.076Z,16.77
2019-02-23T08:43:48.622Z,17.63
2019-02-23T08:46:53.989Z,17.20
2019-02-23T08:49:23.548Z,16.97
2019-02-23T08:51:53.133Z,17.27
2019-02-23T08:54:22.719Z,16.60
2019-02-23T08:56:52.412Z,17.83
2019-02-23T08:59:21.974Z,16.87
2019-02-23T09:01:51.425Z,17.17
2019-02-23T09:04:21.159Z,16.53
2019-02-23T09:06:50.619Z,15.83
2019-02-23T09:09:20.185Z,16.70
2019-02-23T09:11:49.707Z,16.20
2019-02-23T09:14:19.231Z,17.77
2019-02-23T09:16:48.872Z,16.30
2019-02-23T09:19:18.342Z,17.47
2019-02-23T09:21:47.948Z,16.33
2019-02-23T09:24:17.473Z,16.50
2019-02-23T09:26:46.970Z,16.37
2019-02-23T09:29:16.468Z,16.77
2019-02-23T09:31:46.362Z,16.67
2019-02-23T09:34:15.849Z,17.53
2019-02-23T09:36:46.288Z,17.50
2019-02-23T09:39:16.084Z,17.50
2019-02-23T09:41:45.645Z,17.43
2019-02-23T09:44:15.189Z,16.17
2019-02-23T09:46:44.827Z,16.43
2019-02-23T09:49:14.323Z,16.83
2019-02-23T09:51:44.120Z,15.83
2019-02-23T09:54:13.709Z,15.63
2019-02-23T09:56:43.962Z,16.37
2019-02-23T09:59:13.677Z,14.97
2019-02-23T10:01:43.234Z,17.00
2019-02-23T10:04:12.750Z,15.50
2019-02-23T10:06:42.432Z,15.50
2019-02-23T10:09:12.037Z,16.17
2019-02-23T10:11:41.677Z,16.43
2019-02-23T10:14:11.312Z,16.37
2019-02-23T10:16:41.248Z,15.70
2019-02-23T10:19:10.799Z,15.20
2019-02-23T10:21:40.456Z,13.80
2019-02-23T10:24:10.085Z,13.93
2019-02-23T10:26:39.535Z,13.60
2019-02-23T10:29:09.398Z,13.00
2019-02-23T10:31:38.879Z,13.60
2019-02-23T10:34:08.853Z,12.30
2019-02-23T10:36:38.396Z,12.20
2019-02-23T10:39:08.114Z,11.80
2019-02-23T10:41:37.643Z,10.93
2019-02-23T10:44:07.270Z,10.47
2019-02-23T10:46:54.528Z,9.47
2019-02-23T10:49:24.171Z,9.27
2019-02-23T10:51:53.663Z,9.70
2019-02-23T10:54:23.237Z,8.43
2019-02-23T10:56:52.909Z,8.50
2019-02-23T10:59:22.432Z,8.63
2019-02-23T11:01:51.963Z,7.07
2019-02-23T11:04:22.024Z,6.80
2019-02-23T11:06:51.598Z,5.70
2019-02-23T11:09:25.689Z,5.97
2019-02-23T11:11:55.305Z,5.93
2019-02-23T11:14:24.805Z,5.87
2019-02-23T11:16:54.500Z,6.53
2019-02-23T11:19:24.053Z,6.77
2019-02-23T11:21:53.596Z,6.40
2019-02-23T11:24:52.717Z,6.30
2019-02-23T11:27:22.518Z,6.43
2019-02-23T11:30:10.282Z,5.93
2019-02-23T11:32:39.808Z,6.80
2019-02-23T11:35:09.900Z,6.50
2019-02-23T11:37:39.472Z,6.57
2019-02-23T11:40:10.167Z,7.03
2019-02-23T11:42:39.692Z,6.77
2019-02-23T11:45:09.904Z,5.90
2019-02-23T11:47:39.470Z,5.93
2019-02-23T11:50:09.434Z,6.77
2019-02-23T11:52:58.803Z,5.80
2019-02-23T11:55:28.278Z,6.30
2019-02-23T11:57:57.888Z,6.63
2019-02-23T12:00:27.429Z,5.03
2019-02-23T12:02:57.049Z,6.10
2019-02-23T12:05:26.526Z,6.40
2019-02-23T12:07:56.229Z,5.90
2019-02-23T12:10:25.736Z,6.13
2019-02-23T12:12:55.541Z,6.07
2019-02-23T12:15:25.146Z,6.40
2019-02-23T12:17:55.047Z,6.00
2019-02-23T12:20:24.630Z,5.87
2019-02-23T12:22:54.496Z,5.90
2019-02-23T12:25:23.992Z,5.97
2019-02-23T12:27:53.504Z,6.10
2019-02-23T12:30:23.098Z,5.87
2019-02-23T12:32:52.589Z,5.87
2019-02-23T12:35:22.132Z,5.57
2019-02-23T12:37:51.693Z,5.77
2019-02-23T12:40:21.227Z,5.13
2019-02-23T12:42:51.015Z,6.30
2019-02-23T12:45:20.557Z,6.00
2019-02-23T12:47:51.267Z,5.77
2019-02-23T12:50:20.957Z,5.53
2019-02-23T12:52:50.440Z,5.03
2019-02-23T12:55:20.084Z,5.03
2019-02-23T12:57:49.594Z,5.80
2019-02-23T13:00:19.076Z,5.77
2019-02-23T13:02:48.824Z,5.60
2019-02-23T13:05:18.782Z,5.80
2019-02-23T13:07:48.245Z,5.67
2019-02-23T13:10:17.811Z,5.70
2019-02-23T13:13:09.371Z,4.90
2019-02-23T13:15:52.484Z,4.70
2019-02-23T13:18:48.485Z,5.33
2019-02-23T13:22:01.735Z,5.27
2019-02-23T13:25:00.996Z,5.03
2019-02-23T13:27:53.924Z,5.30
2019-02-23T13:31:07.604Z,5.97
2019-02-23T13:34:09.638Z,5.37
2019-02-23T13:37:16.216Z,5.00
2019-02-23T13:40:10.380Z,5.00
2019-02-23T13:43:19.664Z,4.80
2019-02-23T13:47:03.880Z,5.03
2019-02-23T13:50:05.356Z,5.30
2019-02-23T13:53:09.614Z,5.13
2019-02-23T13:56:14.512Z,5.77
2019-02-23T13:59:14.778Z,5.77
2019-02-23T14:02:07.774Z,5.33
2019-02-23T14:05:27.742Z,5.00
2019-02-23T14:08:41.376Z,4.77
2019-02-23T14:11:49.096Z,4.90
2019-02-23T14:14:46.185Z,5.00
2019-02-23T14:18:00.021Z,4.53
2019-02-23T14:21:05.043Z,4.87
2019-02-23T14:24:21.597Z,5.20
2019-02-23T14:27:37.146Z,4.83
2019-02-23T14:30:43.148Z,5.20
2019-02-23T14:33:56.446Z,4.90
2019-02-23T14:36:32.381Z,5.30
2019-02-23T14:39:56.918Z,4.80
2019-02-23T14:42:52.727Z,4.77
2019-02-23T14:45:53.788Z,5.53
2019-02-23T14:49:06.765Z,5.27
2019-02-23T14:52:41.835Z,4.97
2019-02-23T14:55:20.476Z,5.03
2019-02-23T14:58:13.014Z,5.83
2019-02-23T15:01:12.739Z,5.40
2019-02-23T15:04:37.481Z,5.27
2019-02-23T15:07:26.328Z,5.07
2019-02-23T15:10:19.816Z,5.10
2019-02-23T15:13:21.989Z,5.57
2019-02-23T15:16:50.606Z,5.30
2019-02-23T15:19:53.858Z,5.47
2019-02-23T15:22:53.924Z,5.40
2019-02-23T15:26:09.507Z,5.07
2019-02-23T15:29:05.693Z,5.13
2019-02-23T15:32:24.049Z,4.73
2019-02-23T15:35:25.958Z,5.20
2019-02-23T15:38:34.655Z,4.77
2019-02-23T15:41:42.547Z,4.73
2019-02-23T15:44:52.075Z,4.53
2019-02-23T15:47:37.910Z,5.00
2019-02-23T15:50:13.047Z,5.43
2019-02-23T15:52:38.772Z,4.73
2019-02-23T15:55:08.474Z,5.70
2019-02-23T15:57:38.082Z,4.60
2019-02-23T16:00:07.863Z,5.28
2019-02-23T16:02:37.487Z,5.23
2019-02-23T16:05:07.125Z,5.30
2019-02-23T16:07:39.808Z,5.30
2019-02-23T16:10:09.475Z,5.50
2019-02-23T16:12:39.458Z,5.55
2019-02-23T16:15:08.990Z,5.33
2019-02-23T16:17:38.558Z,5.35
2019-02-23T16:20:08.761Z,4.65
2019-02-23T16:22:38.499Z,4.85
2019-02-23T16:25:08.453Z,4.60
2019-02-23T16:27:38.072Z,4.75
2019-02-23T16:30:08.508Z,5.45
2019-02-23T16:32:40.118Z,5.40
2019-02-23T16:35:09.599Z,6.75
2019-02-23T16:37:39.270Z,6.25
2019-02-23T16:40:08.808Z,6.08
2019-02-23T16:42:38.490Z,5.92
2019-02-23T16:45:08.255Z,6.00
2019-02-23T16:47:38.102Z,5.87
2019-02-23T16:50:07.810Z,5.65
2019-02-23T16:52:37.767Z,6.00
2019-02-23T16:55:07.317Z,6.00
2019-02-23T16:57:37.007Z,6.25
2019-02-23T17:00:25.812Z,6.83
2019-02-23T17:02:55.403Z,6.58
2019-02-23T17:05:25.289Z,5.70
2019-02-23T17:07:54.796Z,6.10
2019-02-23T17:10:24.393Z,5.87
2019-02-23T17:13:30.597Z,5.80
2019-02-23T17:16:00.182Z,5.45
2019-02-23T17:18:29.753Z,5.40
2019-02-23T17:20:59.296Z,5.60
2019-02-23T17:23:28.942Z,5.20
2019-02-23T17:26:04.167Z,6.70
2019-02-23T17:28:30.089Z,6.00
2019-02-23T17:30:59.650Z,6.58
2019-02-23T17:33:29.217Z,7.10
2019-02-23T17:35:58.778Z,7.33
2019-02-23T17:38:28.415Z,6.50
2019-02-23T17:40:58.091Z,7.33
2019-02-23T17:43:27.635Z,7.55
2019-02-23T17:45:57.282Z,8.40
2019-02-23T17:48:26.960Z,6.25
2019-02-23T17:50:56.704Z,10.28
2019-02-23T17:53:26.221Z,8.15
2019-02-23T17:55:55.886Z,7.65
2019-02-23T17:58:25.561Z,6.97
2019-02-23T18:00:55.172Z,5.22
2019-02-23T18:03:24.900Z,4.03
2019-02-23T18:05:54.552Z,5.90
2019-02-23T18:08:24.125Z,4.75
2019-02-23T18:10:53.821Z,5.10
2019-02-23T18:13:23.329Z,5.03
2019-02-23T18:15:53.111Z,5.10
2019-02-23T18:18:22.682Z,4.90
2019-02-23T18:20:52.410Z,5.37
2019-02-23T18:23:21.913Z,5.28
2019-02-23T18:25:51.694Z,6.00
2019-02-23T18:28:21.295Z,4.62
2019-02-23T18:30:50.969Z,4.60
2019-02-23T18:33:20.539Z,5.28
2019-02-23T18:35:50.080Z,4.95
2019-02-23T18:38:37.575Z,4.30
2019-02-23T18:41:42.947Z,5.08
2019-02-23T18:44:14.705Z,5.50
2019-02-23T18:46:44.338Z,5.08
2019-02-23T18:49:13.939Z,4.75
2019-02-23T18:52:19.418Z,4.70
2019-02-23T18:54:48.889Z,4.90
2019-02-23T18:57:18.486Z,5.12
2019-02-23T18:59:48.228Z,4.87
2019-02-23T19:02:17.916Z,4.75
2019-02-23T19:04:47.437Z,4.53
2019-02-23T19:07:17.056Z,4.55
2019-02-23T19:09:46.577Z,4.65
2019-02-23T19:12:16.452Z,4.62
2019-02-23T19:14:46.095Z,4.40
2019-02-23T19:17:15.743Z,4.35
2019-02-23T19:20:03.328Z,5.60
2019-02-23T19:22:32.970Z,4.72
2019-02-23T19:25:02.878Z,5.00
2019-02-23T19:27:32.382Z,6.47
2019-02-23T19:30:01.911Z,7.05
2019-02-23T19:33:07.180Z,6.67
2019-02-23T19:35:36.878Z,6.35
2019-02-23T19:38:06.475Z,6.95
2019-02-23T19:40:36.543Z,6.25
2019-02-23T19:43:06.070Z,7.55
2019-02-23T19:45:37.751Z,6.67
2019-02-23T19:48:07.300Z,8.63
2019-02-23T19:50:40.607Z,6.65
2019-02-23T19:53:10.271Z,5.45
2019-02-23T19:55:39.875Z,6.08
2019-02-23T19:58:45.387Z,5.90
2019-02-23T20:01:15.074Z,5.78
2019-02-23T20:03:44.720Z,5.80
2019-02-23T20:06:14.452Z,5.75
2019-02-23T20:08:44.052Z,5.35
2019-02-23T20:11:13.798Z,5.30
2019-02-23T20:13:43.426Z,5.22
2019-02-23T20:16:13.398Z,4.87
2019-02-23T20:18:43.371Z,4.83
2019-02-23T20:21:12.931Z,4.95
2019-02-23T20:23:42.599Z,5.40
2019-02-23T20:26:12.208Z,4.87
2019-02-23T20:28:41.845Z,4.30
2019-02-23T20:31:11.532Z,3.70
2019-02-23T20:33:41.083Z,5.00
2019-02-23T20:36:10.700Z,4.30
2019-02-23T20:38:40.235Z,4.15
2019-02-23T20:41:10.153Z,4.60
2019-02-23T20:43:39.744Z,4.58
2019-02-23T20:46:09.764Z,3.60
2019-02-23T20:48:39.354Z,3.98
2019-02-23T20:51:09.101Z,4.03
2019-02-23T20:53:38.641Z,3.60
2019-02-23T20:56:08.358Z,3.75
2019-02-23T20:58:37.949Z,2.98
2019-02-23T21:01:07.930Z,3.20
2019-02-23T21:03:37.385Z,3.98
2019-02-23T21:06:06.968Z,4.55
2019-02-23T21:08:36.630Z,3.17
2019-02-23T21:11:06.280Z,3.40
2019-02-23T21:13:36.119Z,3.40
2019-02-23T21:16:05.707Z,3.00
2019-02-23T21:18:35.447Z,3.77
2019-02-23T21:21:05.027Z,3.50
2019-02-23T21:23:34.907Z,3.72
2019-02-23T21:26:04.445Z,3.55
2019-02-23T21:28:34.081Z,3.87
2019-02-23T21:31:03.682Z,3.30
2019-02-23T21:33:33.265Z,3.45
2019-02-23T21:36:02.867Z,3.42
2019-02-23T21:38:32.383Z,3.00
2019-02-23T21:41:01.988Z,3.20
2019-02-23T21:43:31.482Z,3.25
2019-02-23T21:46:01.028Z,3.52
2019-02-23T21:48:30.561Z,2.92
2019-02-23T21:51:00.283Z,3.20
2019-02-23T21:53:29.922Z,3.25
2019-02-23T21:55:59.598Z,3.40
2019-02-23T21:58:29.104Z,3.17
2019-02-23T22:00:58.735Z,3.52
2019-02-23T22:03:28.351Z,3.70
2019-02-23T22:05:57.893Z,3.58
2019-02-23T22:08:27.868Z,2.95
2019-02-23T22:11:15.667Z,3.08
2019-02-23T22:13:45.226Z,2.80
2019-02-23T22:16:14.789Z,2.42
2019-02-23T22:18:44.457Z,2.60
2019-02-23T22:21:14.413Z,2.90
2019-02-23T22:23:44.053Z,2.70
2019-02-23T22:26:13.834Z,2.72
2019-02-23T22:28:43.637Z,2.67
2019-02-23T22:31:13.236Z,2.98
2019-02-23T22:33:42.760Z,2.72
2019-02-23T22:36:12.370Z,2.60
2019-02-23T22:38:41.922Z,2.50
2019-02-23T22:41:11.455Z,2.70
2019-02-23T22:43:41.143Z,2.80
2019-02-23T22:46:10.642Z,2.60
2019-02-23T22:48:40.141Z,2.45
2019-02-23T22:51:09.826Z,2.90
2019-02-23T22:53:39.332Z,2.40
2019-02-23T22:56:08.930Z,3.05
2019-02-23T22:58:38.565Z,2.20
2019-02-23T23:01:09.119Z,2.30
2019-02-23T23:03:38.800Z,2.33
2019-02-23T23:06:08.275Z,2.37
2019-02-23T23:08:37.780Z,2.50
2019-02-23T23:11:07.413Z,2.40
2019-02-23T23:13:55.066Z,2.25
2019-02-23T23:16:24.617Z,2.10
2019-02-23T23:18:54.123Z,2.20
2019-02-23T23:21:23.954Z,2.10
2019-02-23T23:23:53.534Z,2.20
2019-02-23T23:26:23.402Z,2.17
2019-02-23T23:28:52.969Z,1.80
2019-02-23T23:31:22.494Z,2.33
2019-02-23T23:33:51.992Z,2.08
2019-02-23T23:36:21.540Z,2.20
2019-02-23T23:38:51.123Z,1.90
2019-02-23T23:41:20.962Z,2.00
2019-02-23T23:43:50.452Z,1.82
2019-02-23T23:46:19.953Z,1.75
2019-02-23T23:48:49.527Z,2.20
2019-02-23T23:51:19.109Z,2.20
2019-02-23T23:53:48.600Z,2.17
2019-02-23T23:56:18.166Z,2.20
2019-02-23T23:58:47.713Z,1.90
